createdAt,value
2018-01-23T00:03:00.121Z,0.50
2018-01-23T00:08:03.556Z,0.40
2018-01-23T00:13:09.171Z,0.40
2018-01-23T00:18:11.838Z,0.50
2018-01-23T00:23:14.557Z,0.60
2018-01-23T00:28:17.248Z,0.50
2018-01-23T00:33:20.297Z,0.50
2018-01-23T00:38:23.846Z,0.40
2018-01-23T00:43:28.418Z,0.50
2018-01-23T00:48:31.055Z,0.50
2018-01-23T00:53:33.864Z,0.60
2018-01-23T00:58:36.519Z,0.60
2018-01-23T01:03:39.616Z,0.50
2018-01-23T01:08:42.303Z,0.50
2018-01-23T01:13:45.427Z,0.50
2018-01-23T01:18:48.101Z,0.50
2018-01-23T01:23:51.559Z,0.50
2018-01-23T01:28:54.175Z,0.50
2018-01-23T01:33:57.750Z,0.50
2018-01-23T01:39:00.386Z,0.50
2018-01-23T01:44:03.418Z,0.50
2018-01-23T01:49:06.158Z,0.60
2018-01-23T01:54:09.384Z,0.60
2018-01-23T01:59:12.032Z,0.50
2018-01-23T02:04:14.946Z,0.40
2018-01-23T02:09:17.593Z,0.50
2018-01-23T02:14:20.687Z,0.60
2018-01-23T02:19:23.306Z,0.40
2018-01-23T02:24:26.312Z,0.50
2018-01-23T02:29:28.975Z,0.60
2018-01-23T02:34:33.024Z,0.60
2018-01-23T02:39:35.728Z,0.60
2018-01-23T02:44:39.242Z,0.50
2018-01-23T02:49:42.680Z,0.60
2018-01-23T02:54:45.360Z,0.60
2018-01-23T02:59:48.010Z,0.60
2018-01-23T03:04:51.254Z,0.80
2018-01-23T03:09:54.692Z,0.90
2018-01-23T03:14:57.783Z,0.90
2018-01-23T03:20:01.187Z,1.10
2018-01-23T03:25:03.966Z,1.10
2018-01-23T03:30:06.630Z,1.00
2018-01-23T03:35:10.340Z,0.90
2018-01-23T03:40:13.015Z,0.70
2018-01-23T03:45:15.699Z,0.80
2018-01-23T03:50:18.384Z,1.00
2018-01-23T03:55:21.288Z,1.00
2018-01-23T04:00:23.982Z,1.00
2018-01-23T04:05:27.181Z,0.90
2018-01-23T04:10:29.824Z,1.00
2018-01-23T04:15:32.530Z,0.60
2018-01-23T04:20:35.292Z,0.80
2018-01-23T04:25:38.418Z,1.00
2018-01-23T04:30:41.071Z,1.00
2018-01-23T04:35:44.354Z,0.90
2018-01-23T04:40:47.810Z,1.00
2018-01-23T04:45:50.644Z,1.00
2018-01-23T04:50:53.399Z,0.80
2018-01-23T04:55:57.453Z,0.80
2018-01-23T05:01:00.134Z,0.80
2018-01-23T05:06:03.625Z,0.60
2018-01-23T05:11:06.301Z,1.00
2018-01-23T05:16:10.053Z,1.00
2018-01-23T05:21:12.756Z,1.10
2018-01-23T05:26:15.690Z,0.90
2018-01-23T05:31:18.374Z,0.90
2018-01-23T05:36:22.064Z,0.90
2018-01-23T05:41:24.750Z,0.90
2018-01-23T05:46:28.198Z,0.90
2018-01-23T05:51:30.854Z,1.10
2018-01-23T05:56:33.617Z,1.10
2018-01-23T06:01:36.338Z,1.10
2018-01-23T06:06:39.729Z,1.10
2018-01-23T06:11:43.170Z,1.00
2018-01-23T06:16:46.216Z,1.00
2018-01-23T06:21:48.843Z,1.10
2018-01-23T06:26:51.631Z,1.00
2018-01-23T06:31:54.296Z,1.00
2018-01-23T06:36:57.497Z,1.10
2018-01-23T06:42:00.134Z,1.10
2018-01-23T06:47:04.566Z,1.00
2018-01-23T06:52:07.325Z,1.00
2018-01-23T06:57:10.456Z,0.90
2018-01-23T07:02:13.110Z,1.00
2018-01-23T07:07:16.302Z,1.10
2018-01-23T07:12:18.949Z,1.10
2018-01-23T07:17:22.484Z,1.10
2018-01-23T07:22:25.164Z,1.20
2018-01-23T07:27:28.072Z,1.20
2018-01-23T07:32:30.692Z,1.20
2018-01-23T07:37:33.610Z,1.10
2018-01-23T07:42:36.271Z,1.00
2018-01-23T07:47:40.821Z,0.80
2018-01-23T07:52:43.503Z,0.70
2018-01-23T07:57:47.006Z,0.90
2018-01-23T08:02:49.644Z,0.90
2018-01-23T08:07:52.423Z,1.00
2018-01-23T08:12:55.877Z,1.20
2018-01-23T08:17:59.071Z,1.10
2018-01-23T08:23:01.728Z,1.20
2018-01-23T08:28:05.103Z,1.50
2018-01-23T08:33:07.761Z,1.30
2018-01-23T08:38:11.981Z,1.60
2018-01-23T08:43:14.660Z,1.50
2018-01-23T08:48:17.870Z,1.60
2018-01-23T08:53:20.595Z,1.60
2018-01-23T08:58:24.750Z,1.70
2018-01-23T09:03:28.253Z,1.70
2018-01-23T09:08:31.495Z,1.70
2018-01-23T09:13:34.224Z,1.80
2018-01-23T09:18:37.551Z,1.80
2018-01-23T09:23:40.994Z,2.00
2018-01-23T09:28:44.636Z,1.90
2018-01-23T09:33:48.098Z,1.80
2018-01-23T09:38:50.899Z,1.80
2018-01-23T09:43:54.444Z,1.90
2018-01-23T09:48:58.050Z,1.90
2018-01-23T09:54:00.712Z,1.90
2018-01-23T09:59:05.485Z,2.20
2018-01-23T10:04:08.146Z,2.30
2018-01-23T10:09:12.574Z,2.50
2018-01-23T10:14:15.223Z,2.50
2018-01-23T10:19:18.544Z,2.30
2018-01-23T10:24:21.259Z,2.30
2018-01-23T10:29:24.833Z,2.40
2018-01-23T10:34:28.258Z,2.60
2018-01-23T10:39:31.830Z,2.60
2018-01-23T10:44:38.804Z,2.60
2018-01-23T10:49:42.157Z,2.70
2018-01-23T10:54:47.103Z,2.80
2018-01-23T10:59:51.385Z,2.70
2018-01-23T11:04:55.109Z,2.70
2018-01-23T11:09:59.654Z,2.70
2018-01-23T11:15:05.762Z,2.60
2018-01-23T11:20:09.749Z,3.00
2018-01-23T11:25:15.620Z,3.80
2018-01-23T11:30:20.804Z,3.50
2018-01-23T11:35:24.297Z,3.40
2018-01-23T11:40:29.467Z,3.40
2018-01-23T11:45:33.805Z,3.30
2018-01-23T11:50:38.199Z,3.10
2018-01-23T11:55:40.960Z,3.10
2018-01-23T12:00:44.528Z,3.00
2018-01-23T12:05:47.307Z,3.00
2018-01-23T12:10:50.323Z,2.80
2018-01-23T12:15:52.934Z,3.00
2018-01-23T12:20:55.838Z,3.00
2018-01-23T12:25:58.489Z,3.10
2018-01-23T12:31:02.117Z,3.30
2018-01-23T12:36:04.790Z,3.40
2018-01-23T12:41:08.397Z,3.50
2018-01-23T12:46:11.054Z,3.50
2018-01-23T12:51:14.659Z,3.40
2018-01-23T12:56:17.338Z,3.30
2018-01-23T13:01:21.776Z,3.60
2018-01-23T13:06:26.853Z,3.60
2018-01-23T13:11:30.244Z,3.60
2018-01-23T13:16:33.662Z,3.50
2018-01-23T13:21:37.366Z,3.60
2018-01-23T13:26:40.017Z,3.50
2018-01-23T13:31:42.733Z,3.50
2018-01-23T13:36:45.405Z,3.60
2018-01-23T13:41:48.187Z,3.40
2018-01-23T13:46:51.674Z,3.50
2018-01-23T13:51:55.111Z,3.50
2018-01-23T13:56:57.787Z,3.50
2018-01-23T14:02:01.012Z,3.50
2018-01-23T14:07:03.689Z,3.50
2018-01-23T14:12:07.188Z,3.40
2018-01-23T14:17:09.872Z,3.60
2018-01-23T14:22:13.628Z,3.70
2018-01-23T14:27:16.271Z,5.90
2018-01-23T14:32:19.700Z,6.10
2018-01-23T14:37:23.140Z,3.80
2018-01-23T14:42:26.068Z,3.80
2018-01-23T14:47:28.748Z,3.70
2018-01-23T14:52:31.749Z,3.70
2018-01-23T14:57:34.447Z,3.60
2018-01-23T15:02:38.079Z,3.60
2018-01-23T15:07:40.721Z,3.60
2018-01-23T15:12:43.447Z,3.70
2018-01-23T15:17:46.887Z,3.60
2018-01-23T15:22:49.595Z,3.60
2018-01-23T15:27:52.251Z,3.60
2018-01-23T15:32:55.695Z,3.70
2018-01-23T15:37:59.383Z,3.60
2018-01-23T15:43:02.810Z,3.50
2018-01-23T15:48:05.444Z,3.60
2018-01-23T15:53:08.677Z,3.60
2018-01-23T15:58:11.369Z,3.70
2018-01-23T16:03:14.263Z,3.80
2018-01-23T16:08:16.973Z,3.70
2018-01-23T16:13:20.399Z,3.70
2018-01-23T16:18:23.131Z,3.60
2018-01-23T16:23:26.576Z,3.40
2018-01-23T16:28:30.797Z,3.50
2018-01-23T16:33:33.796Z,3.50
2018-01-23T16:38:36.481Z,3.50
2018-01-23T16:43:39.189Z,3.50
2018-01-23T16:48:41.814Z,3.70
2018-01-23T16:53:44.745Z,3.60
2018-01-23T16:58:47.581Z,3.90
2018-01-23T17:03:51.181Z,3.70
2018-01-23T17:08:53.923Z,3.70
2018-01-23T17:13:56.971Z,3.90
2018-01-23T17:19:00.441Z,3.90
2018-01-23T17:24:04.170Z,3.90
2018-01-23T17:29:07.172Z,3.90
2018-01-23T17:34:11.600Z,3.90
2018-01-23T17:39:15.082Z,3.70
2018-01-23T17:44:19.123Z,3.90
2018-01-23T17:49:21.845Z,3.80
2018-01-23T17:54:25.154Z,3.90
2018-01-23T17:59:27.820Z,3.90
2018-01-23T18:04:32.003Z,4.00
2018-01-23T18:09:34.730Z,4.00
2018-01-23T18:14:37.724Z,3.90
2018-01-23T18:19:40.434Z,4.00
2018-01-23T18:24:44.564Z,4.00
2018-01-23T18:29:47.298Z,4.00
2018-01-23T18:34:51.372Z,4.00
2018-01-23T18:39:54.168Z,4.00
2018-01-23T18:44:57.618Z,4.10
2018-01-23T18:50:00.353Z,4.10
2018-01-23T18:55:03.644Z,4.20
2018-01-23T19:00:06.402Z,4.10
2018-01-23T19:05:09.132Z,4.20
2018-01-23T19:10:11.889Z,4.20
2018-01-23T19:15:14.775Z,4.30
2018-01-23T19:20:18.227Z,4.40
2018-01-23T19:25:21.433Z,4.30
2018-01-23T19:30:24.164Z,4.40
2018-01-23T19:35:27.262Z,4.40
2018-01-23T19:40:29.989Z,4.50
2018-01-23T19:45:33.233Z,4.60
2018-01-23T19:50:35.960Z,4.60
2018-01-23T19:55:39.606Z,4.60
2018-01-23T20:00:42.309Z,4.60
2018-01-23T20:05:45.077Z,4.60
2018-01-23T20:10:48.800Z,4.70
2018-01-23T20:15:51.574Z,4.60
2018-01-23T20:20:54.317Z,4.60
2018-01-23T20:25:59.233Z,4.60
2018-01-23T20:31:02.682Z,4.70
2018-01-23T20:36:05.893Z,4.60
2018-01-23T20:41:08.598Z,4.70
2018-01-23T20:46:11.559Z,4.70
2018-01-23T20:51:14.276Z,4.60
2018-01-23T20:56:17.107Z,4.60
2018-01-23T21:01:19.949Z,4.60
2018-01-23T21:06:23.314Z,4.50
2018-01-23T21:11:26.131Z,4.50
2018-01-23T21:16:29.067Z,4.50
2018-01-23T21:21:32.697Z,4.50
2018-01-23T21:26:36.403Z,4.50
2018-01-23T21:31:40.030Z,4.60
2018-01-23T21:36:43.925Z,4.60
2018-01-23T21:41:46.685Z,4.60
2018-01-23T21:46:50.154Z,4.60
2018-01-23T21:51:52.859Z,4.70
2018-01-23T21:56:56.038Z,4.70
2018-01-23T22:01:59.466Z,4.70
2018-01-23T22:07:02.568Z,4.70
2018-01-23T22:12:06.181Z,4.60
2018-01-23T22:17:09.517Z,4.60
2018-01-23T22:22:12.171Z,4.60
2018-01-23T22:27:15.781Z,4.50
2018-01-23T22:32:18.441Z,4.50
2018-01-23T22:37:22.002Z,4.50
2018-01-23T22:42:24.687Z,4.60
2018-01-23T22:47:27.617Z,4.60
2018-01-23T22:52:30.277Z,4.60
2018-01-23T22:57:33.003Z,4.60
2018-01-23T23:02:35.655Z,4.60
2018-01-23T23:07:39.741Z,4.70
2018-01-23T23:12:42.405Z,4.70
2018-01-23T23:17:45.587Z,4.70
2018-01-23T23:22:49.176Z,4.80
2018-01-23T23:27:52.187Z,4.80
2018-01-23T23:32:54.881Z,4.90
2018-01-23T23:37:59.223Z,4.90
2018-01-23T23:43:01.943Z,4.90
2018-01-23T23:48:04.780Z,5.00
2018-01-23T23:53:07.469Z,5.00
2018-01-23T23:58:11.219Z,5.10
